Time;durP1;ratioP1;P1;durP2;ratioP2;P2;SDS_P1;SDS_P2;PMS_P1;PMS_P2;Temp;Humidity;BMP_temperature;BMP_pressure;BME280_temperature;BME280_humidity;BME280_pressure;Samples;Min_cycle;Max_cycle;Signal;HPM_P1;HPM_P2
2022/08/28 00:00:28;;;;;;;76.78;36.15;;;;;;;;;;5083135;28;20539;-83
2022/08/28 00:02:55;;;;;;;81.30;36.67;;;;;;;;;;5092486;28;20044;-83
2022/08/28 00:05:24;;;;;;;78.30;36.08;;;;;;;;;;5086398;28;20106;-84
2022/08/28 00:07:50;;;;;;;76.28;35.67;;;;;;;;;;5086432;28;20138;-82
2022/08/28 00:10:18;;;;;;;74.40;35.15;;;;;;;;;;5084115;28;20048;-82
2022/08/28 00:12:48;;;;;;;72.50;35.95;;;;;;;;;;5085745;28;20048;-81
2022/08/28 00:15:18;;;;;;;66.00;33.35;;;;;;;;;;5105603;28;20044;-81
2022/08/28 00:17:45;;;;;;;64.45;32.53;;;;;;;;;;5106507;28;20036;-82
2022/08/28 00:20:12;;;;;;;63.08;31.70;;;;;;;;;;5105776;28;20464;-81
2022/08/28 00:22:40;;;;;;;66.35;32.40;;;;;;;;;;5109254;28;20044;-81
2022/08/28 00:25:08;;;;;;;61.55;31.88;;;;;;;;;;5109777;28;20111;-80
2022/08/28 00:27:53;;;;;;;67.07;33.38;;;;;;;;;;5107244;28;20417;-82
2022/08/28 00:30:23;;;;;;;68.15;33.25;;;;;;;;;;5107358;28;20059;-82
2022/08/28 00:32:51;;;;;;;59.90;30.90;;;;;;;;;;5102560;28;20117;-82
2022/08/28 00:35:18;;;;;;;66.68;33.20;;;;;;;;;;5104475;28;20040;-83
2022/08/28 00:37:45;;;;;;;72.25;34.50;;;;;;;;;;5105410;28;20051;-82
2022/08/28 00:40:14;;;;;;;67.57;33.97;;;;;;;;;;5105293;28;20074;-80
2022/08/28 00:42:41;;;;;;;69.63;34.63;;;;;;;;;;5103864;28;20050;-83
2022/08/28 00:45:08;;;;;;;73.03;35.28;;;;;;;;;;5105695;28;20074;-81
2022/08/28 00:47:35;;;;;;;70.93;35.42;;;;;;;;;;5104795;28;20060;-83
2022/08/28 00:50:02;;;;;;;76.10;35.55;;;;;;;;;;5104562;28;20094;-82
2022/08/28 00:52:29;;;;;;;76.68;34.60;;;;;;;;;;5103424;28;20112;-81
2022/08/28 00:54:58;;;;;;;69.10;34.47;;;;;;;;;;5103859;28;20538;-81
2022/08/28 00:57:29;;;;;;;72.72;34.55;;;;;;;;;;5095923;28;20048;-79
2022/08/28 00:59:56;;;;;;;71.53;33.00;;;;;;;;;;5103076;28;20056;-81
2022/08/28 01:02:26;;;;;;;71.35;33.72;;;;;;;;;;5102806;28;20055;-83
2022/08/28 01:04:53;;;;;;;66.88;32.92;;;;;;;;;;5104362;28;20070;-82
2022/08/28 01:07:22;;;;;;;70.45;31.27;;;;;;;;;;5104412;28;20048;-81
2022/08/28 01:09:51;;;;;;;62.97;29.80;;;;;;;;;;5103820;28;20047;-82
2022/08/28 01:12:20;;;;;;;62.33;31.00;;;;;;;;;;5083094;28;20040;-77
2022/08/28 01:14:48;;;;;;;61.38;28.70;;;;;;;;;;5073303;28;20040;-79
2022/08/28 01:17:15;;;;;;;60.35;29.40;;;;;;;;;;5072390;28;20060;-78
2022/08/28 01:19:43;;;;;;;54.38;29.33;;;;;;;;;;5053197;28;20127;-79
2022/08/28 01:22:12;;;;;;;61.00;29.02;;;;;;;;;;5070156;28;20068;-79
2022/08/28 01:24:39;;;;;;;60.28;29.10;;;;;;;;;;5070301;28;20058;-79
2022/08/28 01:27:05;;;;;;;62.78;28.38;;;;;;;;;;5071228;28;20071;-79
2022/08/28 01:29:32;;;;;;;51.58;26.50;;;;;;;;;;5070629;28;20041;-79
2022/08/28 01:31:58;;;;;;;51.95;25.75;;;;;;;;;;5070092;28;20882;-78
2022/08/28 01:34:25;;;;;;;53.38;24.30;;;;;;;;;;5069918;28;20131;-77
2022/08/28 01:36:51;;;;;;;52.60;24.25;;;;;;;;;;5071635;28;20044;-78
2022/08/28 01:39:20;;;;;;;47.55;22.95;;;;;;;;;;5070398;28;20071;-79
2022/08/28 01:41:47;;;;;;;43.00;21.60;;;;;;;;;;5070006;28;20090;-78
2022/08/28 01:44:14;;;;;;;44.45;20.55;;;;;;;;;;5071616;28;20079;-78
2022/08/28 01:46:43;;;;;;;43.95;20.83;;;;;;;;;;5076587;28;20490;-77
2022/08/28 01:49:10;;;;;;;38.85;19.52;;;;;;;;;;5071697;28;20525;-78
2022/08/28 01:51:37;;;;;;;36.60;18.88;;;;;;;;;;5052501;28;20091;-78
2022/08/28 01:54:04;;;;;;;34.63;18.92;;;;;;;;;;5076350;28;20044;-78
2022/08/28 01:56:31;;;;;;;38.67;18.95;;;;;;;;;;5082012;28;20125;-78
2022/08/28 01:59:00;;;;;;;38.60;17.63;;;;;;;;;;5072977;28;20087;-78
2022/08/28 02:01:26;;;;;;;41.28;18.13;;;;;;;;;;5069995;28;20051;-78
2022/08/28 02:03:53;;;;;;;34.92;17.35;;;;;;;;;;5070563;28;20248;-78
2022/08/28 02:06:19;;;;;;;34.00;17.33;;;;;;;;;;5071178;28;20499;-78
2022/08/28 02:08:46;;;;;;;37.20;17.85;;;;;;;;;;5071109;28;20132;-79
2022/08/28 02:11:12;;;;;;;32.95;17.33;;;;;;;;;;5077638;28;20062;-79
2022/08/28 02:13:39;;;;;;;39.10;17.20;;;;;;;;;;5090868;28;20532;-79
2022/08/28 02:16:07;;;;;;;35.63;16.95;;;;;;;;;;5092015;28;20066;-79
2022/08/28 02:18:34;;;;;;;35.53;16.33;;;;;;;;;;5091766;28;20044;-80
2022/08/28 02:21:00;;;;;;;33.70;15.35;;;;;;;;;;5091442;28;20074;-78
2022/08/28 02:23:27;;;;;;;37.20;15.93;;;;;;;;;;5091261;28;20126;-77
2022/08/28 02:25:53;;;;;;;35.67;16.20;;;;;;;;;;5089454;28;20536;-78
2022/08/28 02:28:19;;;;;;;35.13;15.38;;;;;;;;;;5091196;28;20478;-77
2022/08/28 02:30:46;;;;;;;28.90;14.85;;;;;;;;;;5113647;28;20040;-76
2022/08/28 02:33:12;;;;;;;34.38;14.25;;;;;;;;;;5115729;28;20091;-78
2022/08/28 02:35:41;;;;;;;35.75;14.07;;;;;;;;;;5103411;28;20095;-77
2022/08/28 02:38:08;;;;;;;36.70;13.65;;;;;;;;;;5090386;28;20044;-77
2022/08/28 02:40:35;;;;;;;31.80;13.68;;;;;;;;;;5092774;28;20040;-76
2022/08/28 02:43:03;;;;;;;30.20;12.90;;;;;;;;;;5090572;28;20043;-77
2022/08/28 02:45:29;;;;;;;29.90;13.05;;;;;;;;;;5088351;28;20130;-78
2022/08/28 02:47:56;;;;;;;26.95;12.88;;;;;;;;;;5089025;28;20100;-77
2022/08/28 02:50:22;;;;;;;36.10;12.38;;;;;;;;;;5088545;28;20075;-78
2022/08/28 02:52:49;;;;;;;29.98;11.35;;;;;;;;;;5088593;28;20078;-77
2022/08/28 02:55:17;;;;;;;29.42;11.30;;;;;;;;;;5080237;28;20143;-77
2022/08/28 02:57:44;;;;;;;27.60;10.70;;;;;;;;;;5074008;28;20140;-77
2022/08/28 03:00:13;;;;;;;24.17;10.38;;;;;;;;;;5069514;28;20068;-77
2022/08/28 03:02:40;;;;;;;28.20;10.50;;;;;;;;;;5067634;28;20118;-77
2022/08/28 03:05:08;;;;;;;25.90;9.43;;;;;;;;;;5069306;28;20191;-78
2022/08/28 03:07:35;;;;;;;28.42;9.82;;;;;;;;;;5070461;28;20072;-78
2022/08/28 03:10:02;;;;;;;33.70;9.10;;;;;;;;;;5069649;28;20041;-78
2022/08/28 03:12:28;;;;;;;23.23;9.38;;;;;;;;;;5088112;28;20683;-79
2022/08/28 03:14:55;;;;;;;27.00;9.32;;;;;;;;;;5091397;28;20046;-79
2022/08/28 03:17:22;;;;;;;30.25;9.70;;;;;;;;;;5088253;28;20131;-78
2022/08/28 03:19:49;;;;;;;34.92;9.18;;;;;;;;;;5088905;28;20046;-77
2022/08/28 03:22:16;;;;;;;27.38;9.88;;;;;;;;;;5089316;28;20043;-78
2022/08/28 03:24:43;;;;;;;27.92;9.80;;;;;;;;;;5092812;28;20379;-75
2022/08/28 03:27:10;;;;;;;31.60;9.05;;;;;;;;;;5090832;28;20074;-77
2022/08/28 03:29:36;;;;;;;23.38;8.55;;;;;;;;;;5075709;28;20101;-76
2022/08/28 03:32:03;;;;;;;31.02;8.15;;;;;;;;;;5092341;28;20048;-77
2022/08/28 03:34:29;;;;;;;28.05;8.40;;;;;;;;;;5090988;28;20181;-76
2022/08/28 03:36:55;;;;;;;24.27;7.28;;;;;;;;;;5090026;28;20541;-77
2022/08/28 03:39:22;;;;;;;22.48;7.65;;;;;;;;;;5089614;28;20104;-76
2022/08/28 03:41:48;;;;;;;28.55;8.25;;;;;;;;;;5089291;28;20044;-77
2022/08/28 03:44:15;;;;;;;28.13;8.35;;;;;;;;;;5099616;28;20071;-76
2022/08/28 03:46:41;;;;;;;28.75;7.85;;;;;;;;;;5091041;28;20444;-76
2022/08/28 03:49:08;;;;;;;25.15;7.88;;;;;;;;;;5089858;28;20052;-76
2022/08/28 03:51:34;;;;;;;22.33;7.22;;;;;;;;;;5091873;28;20082;-76
2022/08/28 03:54:02;;;;;;;20.77;7.18;;;;;;;;;;5091742;28;20475;-77
2022/08/28 03:56:29;;;;;;;30.25;6.88;;;;;;;;;;5089519;28;20064;-79
2022/08/28 03:58:57;;;;;;;33.83;6.93;;;;;;;;;;5083744;28;20068;-77
2022/08/28 04:01:23;;;;;;;23.75;6.60;;;;;;;;;;5090329;28;20094;-77
2022/08/28 04:03:50;;;;;;;23.60;7.28;;;;;;;;;;5095522;28;20123;-80
2022/08/28 04:06:17;;;;;;;34.30;8.88;;;;;;;;;;5103538;28;20044;-79
2022/08/28 04:08:43;;;;;;;33.03;9.35;;;;;;;;;;5102488;28;20117;-80
2022/08/28 04:11:13;;;;;;;24.05;9.27;;;;;;;;;;5093819;28;20079;-79
2022/08/28 04:13:40;;;;;;;26.55;9.20;;;;;;;;;;5089575;28;20520;-78
2022/08/28 04:16:09;;;;;;;20.75;8.40;;;;;;;;;;5089442;28;20047;-78
2022/08/28 04:18:37;;;;;;;22.17;7.45;;;;;;;;;;5089022;28;20040;-78
2022/08/28 04:21:06;;;;;;;28.55;6.82;;;;;;;;;;5089527;28;20071;-79
2022/08/28 04:23:34;;;;;;;23.83;6.90;;;;;;;;;;5090192;28;20040;-77
2022/08/28 04:26:02;;;;;;;26.40;6.25;;;;;;;;;;5072139;28;20094;-79
2022/08/28 04:28:31;;;;;;;28.60;6.40;;;;;;;;;;5089884;28;20127;-78
2022/08/28 04:30:57;;;;;;;25.20;6.25;;;;;;;;;;5092421;28;20055;-78
2022/08/28 04:33:24;;;;;;;19.27;6.03;;;;;;;;;;5090961;28;20227;-78
2022/08/28 04:35:51;;;;;;;23.70;6.10;;;;;;;;;;5092466;28;20044;-78
2022/08/28 04:38:17;;;;;;;28.92;6.70;;;;;;;;;;5093070;28;20060;-78
2022/08/28 04:40:44;;;;;;;21.67;6.07;;;;;;;;;;5091261;28;20083;-78
2022/08/28 04:43:10;;;;;;;26.17;5.80;;;;;;;;;;5092478;28;20151;-78
2022/08/28 04:45:38;;;;;;;20.45;5.93;;;;;;;;;;5090675;28;20126;-79
2022/08/28 04:48:04;;;;;;;22.00;5.43;;;;;;;;;;5092321;28;20054;-78
2022/08/28 04:50:43;;;;;;;23.90;5.35;;;;;;;;;;5093499;28;20131;-79
2022/08/28 04:53:10;;;;;;;23.55;4.93;;;;;;;;;;5075911;28;20492;-79
2022/08/28 04:55:44;;;;;;;20.58;4.65;;;;;;;;;;5085879;28;20040;-79
2022/08/28 04:58:20;;;;;;;23.65;4.55;;;;;;;;;;5077365;28;20062;-78
2022/08/28 05:00:50;;;;;;;22.98;4.32;;;;;;;;;;5071267;28;20124;-78
2022/08/28 05:03:16;;;;;;;18.90;4.63;;;;;;;;;;5073152;28;20041;-80
2022/08/28 05:05:44;;;;;;;20.33;4.15;;;;;;;;;;5074178;28;20155;-79
2022/08/28 05:08:10;;;;;;;14.18;4.25;;;;;;;;;;5073094;28;20049;-77
2022/08/28 05:10:39;;;;;;;20.85;4.72;;;;;;;;;;5075592;28;20136;-77
2022/08/28 05:13:08;;;;;;;19.75;4.95;;;;;;;;;;5073086;28;20494;-77
2022/08/28 05:15:39;;;;;;;21.23;4.88;;;;;;;;;;5087847;28;20150;-77
2022/08/28 05:18:05;;;;;;;20.10;4.32;;;;;;;;;;5068842;28;20123;-79
2022/08/28 05:20:35;;;;;;;28.98;4.25;;;;;;;;;;5090431;28;20047;-78
2022/08/28 05:23:03;;;;;;;22.63;4.50;;;;;;;;;;5091961;28;20088;-79
2022/08/28 05:25:31;;;;;;;24.38;4.00;;;;;;;;;;5092146;28;20051;-78
2022/08/28 05:27:58;;;;;;;23.40;3.90;;;;;;;;;;5057855;28;20093;-78
2022/08/28 05:30:24;;;;;;;23.48;4.35;;;;;;;;;;5092360;28;20586;-78
2022/08/28 05:32:50;;;;;;;20.73;3.60;;;;;;;;;;5090133;28;20091;-79
2022/08/28 05:35:17;;;;;;;22.98;4.25;;;;;;;;;;5090433;28;20515;-79
2022/08/28 05:37:44;;;;;;;21.17;3.60;;;;;;;;;;5090654;28;20044;-78
2022/08/28 05:40:10;;;;;;;16.15;4.05;;;;;;;;;;5089861;28;20083;-77
2022/08/28 05:42:37;;;;;;;19.60;4.10;;;;;;;;;;5090111;28;20125;-78
2022/08/28 05:45:05;;;;;;;16.10;3.80;;;;;;;;;;5089810;28;20726;-78
2022/08/28 05:47:31;;;;;;;22.90;4.40;;;;;;;;;;5113025;28;20039;-77
2022/08/28 05:49:58;;;;;;;18.95;4.07;;;;;;;;;;5108050;28;20048;-78
2022/08/28 05:52:24;;;;;;;20.48;3.95;;;;;;;;;;5091580;28;20173;-79
2022/08/28 05:54:51;;;;;;;21.08;3.97;;;;;;;;;;5085225;28;20068;-77
2022/08/28 05:57:17;;;;;;;24.77;4.63;;;;;;;;;;5069468;28;20052;-78
2022/08/28 05:59:44;;;;;;;18.13;4.03;;;;;;;;;;5069840;28;20056;-77
2022/08/28 06:02:10;;;;;;;21.27;4.00;;;;;;;;;;5069316;28;20101;-77
2022/08/28 06:04:39;;;;;;;16.95;3.88;;;;;;;;;;5069864;28;20261;-77
2022/08/28 06:07:05;;;;;;;19.50;3.78;;;;;;;;;;5070624;28;20132;-78
2022/08/28 06:09:32;;;;;;;21.10;3.88;;;;;;;;;;5070041;28;20052;-78
2022/08/28 06:11:59;;;;;;;17.67;3.42;;;;;;;;;;5053343;28;20094;-78
2022/08/28 06:14:28;;;;;;;20.77;3.78;;;;;;;;;;5073167;28;20063;-78
2022/08/28 06:16:55;;;;;;;19.42;3.67;;;;;;;;;;5070583;28;20056;-77
2022/08/28 06:19:23;;;;;;;14.70;3.45;;;;;;;;;;5069563;28;20049;-79
2022/08/28 06:21:52;;;;;;;16.42;3.75;;;;;;;;;;5070497;28;20091;-78
2022/08/28 06:24:19;;;;;;;18.88;3.50;;;;;;;;;;5070778;28;20048;-79
2022/08/28 06:26:45;;;;;;;21.15;3.90;;;;;;;;;;5069813;28;20114;-78
2022/08/28 06:29:14;;;;;;;28.23;4.15;;;;;;;;;;5070288;28;20098;-80
2022/08/28 06:31:41;;;;;;;21.08;3.78;;;;;;;;;;5069390;28;20052;-78
2022/08/28 06:34:08;;;;;;;25.48;4.45;;;;;;;;;;5070189;28;20139;-78
2022/08/28 06:36:36;;;;;;;25.90;4.65;;;;;;;;;;5068723;28;20143;-78
2022/08/28 06:39:04;;;;;;;23.25;3.53;;;;;;;;;;5068178;28;20103;-78
2022/08/28 06:41:31;;;;;;;16.58;3.42;;;;;;;;;;5067608;28;20048;-78
2022/08/28 06:43:58;;;;;;;22.80;3.80;;;;;;;;;;5065476;28;20102;-78
2022/08/28 06:46:25;;;;;;;29.63;5.05;;;;;;;;;;5052226;28;20463;-78
2022/08/28 06:48:52;;;;;;;22.00;3.80;;;;;;;;;;5067902;28;20051;-79
2022/08/28 06:51:18;;;;;;;20.77;4.50;;;;;;;;;;5051998;28;20497;-78
2022/08/28 06:53:48;;;;;;;21.05;3.95;;;;;;;;;;5070096;28;20080;-78
2022/08/28 06:56:19;;;;;;;18.27;3.97;;;;;;;;;;5079514;28;20615;-78
2022/08/28 06:58:52;;;;;;;18.40;4.30;;;;;;;;;;5052968;28;20550;-78
2022/08/28 07:01:27;;;;;;;18.17;4.30;;;;;;;;;;5070551;28;20105;-77
2022/08/28 07:03:57;;;;;;;23.23;4.10;;;;;;;;;;5050226;28;20041;-78
2022/08/28 07:06:24;;;;;;;21.67;3.75;;;;;;;;;;5068982;28;20084;-79
2022/08/28 07:08:50;;;;;;;17.23;4.05;;;;;;;;;;5068240;28;20048;-79
2022/08/28 07:11:23;;;;;;;24.33;4.32;;;;;;;;;;5063535;28;20134;-79
2022/08/28 07:13:52;;;;;;;18.10;4.30;;;;;;;;;;5085328;28;20158;-79
2022/08/28 07:16:19;;;;;;;22.90;4.38;;;;;;;;;;5085764;28;20063;-78
2022/08/28 07:18:46;;;;;;;21.65;4.05;;;;;;;;;;5081884;28;20048;-77
2022/08/28 07:21:12;;;;;;;21.35;4.22;;;;;;;;;;5084513;28;20048;-77
2022/08/28 07:23:40;;;;;;;22.25;4.28;;;;;;;;;;5083818;28;20040;-76
2022/08/28 07:26:08;;;;;;;23.05;4.15;;;;;;;;;;5082766;28;20048;-77
2022/08/28 07:28:35;;;;;;;19.10;4.43;;;;;;;;;;5050130;28;20112;-77
2022/08/28 07:31:03;;;;;;;20.70;3.90;;;;;;;;;;5078670;28;20139;-77
2022/08/28 07:33:31;;;;;;;18.95;4.30;;;;;;;;;;5070690;28;20060;-77
2022/08/28 07:35:59;;;;;;;19.05;4.43;;;;;;;;;;5074006;28;20060;-77
2022/08/28 07:38:26;;;;;;;19.13;4.28;;;;;;;;;;5071358;28;20044;-77
2022/08/28 07:40:53;;;;;;;18.90;4.60;;;;;;;;;;5073585;28;20195;-75
2022/08/28 07:46:10;;;;;;;23.63;4.60;;;;;;;;;;5078164;28;20500;-76
2022/08/28 07:48:38;;;;;;;24.55;4.35;;;;;;;;;;5075299;28;20725;-79
2022/08/28 07:51:06;;;;;;;21.90;4.75;;;;;;;;;;5065511;28;20060;-77
2022/08/28 07:53:32;;;;;;;18.63;4.22;;;;;;;;;;5068426;28;20068;-78
2022/08/28 07:56:02;;;;;;;20.13;4.70;;;;;;;;;;5079424;28;20047;-78
2022/08/28 07:58:29;;;;;;;17.27;4.03;;;;;;;;;;5066083;28;20083;-78
2022/08/28 08:00:56;;;;;;;19.55;4.40;;;;;;;;;;5072781;28;20040;-77
2022/08/28 08:03:28;;;;;;;24.40;4.90;;;;;;;;;;5084006;28;20727;-78
2022/08/28 08:05:58;;;;;;;20.98;4.32;;;;;;;;;;5088098;28;20109;-77
2022/08/28 08:08:25;;;;;;;19.30;4.50;;;;;;;;;;5072999;28;20720;-77
2022/08/28 08:10:55;;;;;;;16.05;4.57;;;;;;;;;;5084116;28;20132;-78
2022/08/28 08:13:21;;;;;;;15.65;4.03;;;;;;;;;;5066338;28;20167;-77
2022/08/28 08:15:48;;;;;;;19.88;4.60;;;;;;;;;;5068804;28;20076;-78
2022/08/28 08:18:15;;;;;;;21.02;4.68;;;;;;;;;;5077096;28;20479;-76
2022/08/28 08:20:46;;;;;;;24.23;5.18;;;;;;;;;;5088790;28;20579;-78
2022/08/28 08:23:14;;;;;;;19.65;4.65;;;;;;;;;;5089576;28;20127;-76
2022/08/28 08:25:40;;;;;;;19.42;4.60;;;;;;;;;;5086569;28;20541;-79
2022/08/28 08:28:07;;;;;;;17.42;4.45;;;;;;;;;;5089867;28;20050;-78
2022/08/28 08:30:34;;;;;;;18.33;4.80;;;;;;;;;;5090012;28;20525;-79
2022/08/28 08:33:01;;;;;;;18.83;4.50;;;;;;;;;;5070719;28;20469;-78
2022/08/28 08:35:27;;;;;;;20.23;4.50;;;;;;;;;;5070668;28;20041;-78
2022/08/28 08:37:53;;;;;;;26.88;4.40;;;;;;;;;;5071140;28;20135;-78
2022/08/28 08:40:20;;;;;;;14.77;4.10;;;;;;;;;;5089594;28;20097;-79
2022/08/28 08:42:47;;;;;;;15.80;4.47;;;;;;;;;;5085002;28;20049;-78
2022/08/28 08:45:15;;;;;;;19.27;4.30;;;;;;;;;;5071577;28;20083;-78
2022/08/28 08:47:45;;;;;;;21.20;4.43;;;;;;;;;;5073265;28;20048;-79
2022/08/28 08:50:15;;;;;;;19.35;4.45;;;;;;;;;;5090385;28;20067;-78
2022/08/28 08:52:47;;;;;;;18.02;4.40;;;;;;;;;;5092882;28;20107;-78
2022/08/28 08:55:17;;;;;;;17.98;3.95;;;;;;;;;;5079289;28;20040;-78
2022/08/28 08:57:44;;;;;;;15.88;4.38;;;;;;;;;;5086952;28;20076;-78
2022/08/28 09:00:14;;;;;;;17.58;4.10;;;;;;;;;;5092685;28;20044;-77
2022/08/28 09:02:51;;;;;;;18.15;4.50;;;;;;;;;;5097540;28;20078;-80
2022/08/28 09:05:20;;;;;;;30.42;4.78;;;;;;;;;;5105606;28;20065;-80
2022/08/28 09:07:58;;;;;;;23.55;4.57;;;;;;;;;;5115808;28;20088;-78
2022/08/28 09:10:31;;;;;;;19.38;4.75;;;;;;;;;;5116043;28;20103;-78
2022/08/28 09:13:04;;;;;;;34.22;4.60;;;;;;;;;;5089244;28;20122;-78
2022/08/28 09:15:34;;;;;;;18.40;4.72;;;;;;;;;;5096246;28;20484;-78
2022/08/28 09:18:03;;;;;;;19.55;4.75;;;;;;;;;;5092646;28;20438;-77
2022/08/28 09:20:30;;;;;;;22.95;4.68;;;;;;;;;;5068129;28;20178;-77
2022/08/28 09:22:58;;;;;;;17.70;5.22;;;;;;;;;;5068831;28;20044;-79
2022/08/28 09:25:43;;;;;;;15.73;4.40;;;;;;;;;;5082784;28;20056;-78
2022/08/28 09:28:13;;;;;;;19.08;5.13;;;;;;;;;;5091792;28;20052;-78
2022/08/28 09:30:40;;;;;;;24.73;5.05;;;;;;;;;;5095168;28;20052;-81
2022/08/28 09:33:07;;;;;;;18.90;5.57;;;;;;;;;;5095314;28;20070;-78
2022/08/28 09:35:36;;;;;;;16.35;4.70;;;;;;;;;;5090534;28;20127;-78
2022/08/28 09:38:19;;;;;;;19.00;5.43;;;;;;;;;;5089126;28;20207;-79
2022/08/28 09:43:32;;;;;;;20.73;6.05;;;;;;;;;;5080354;28;21067;-79
2022/08/28 09:46:04;;;;;;;18.23;5.60;;;;;;;;;;5093215;28;20083;-80
2022/08/28 09:48:32;;;;;;;19.23;5.53;;;;;;;;;;5091799;28;20056;-80
2022/08/28 09:51:04;;;;;;;14.80;5.25;;;;;;;;;;5090709;28;20092;-79
2022/08/28 09:53:33;;;;;;;25.50;6.15;;;;;;;;;;5087873;28;20182;-80
2022/08/28 09:56:18;;;;;;;18.08;5.95;;;;;;;;;;5091358;28;20044;-79
2022/08/28 09:58:53;;;;;;;19.27;6.60;;;;;;;;;;5074911;28;20053;-80
2022/08/28 10:01:23;;;;;;;23.38;6.90;;;;;;;;;;5091738;28;20048;-80
2022/08/28 10:03:58;;;;;;;22.17;7.28;;;;;;;;;;5093023;28;20488;-79
2022/08/28 10:06:25;;;;;;;;;;;;;;;;;;5085020;28;20040;-80
2022/08/28 10:09:01;;;;;;;21.77;7.90;;;;;;;;;;5087752;28;19920;-81
2022/08/28 10:11:27;;;;;;;;;;;;;;;;;;5089362;28;20044;-78
2022/08/28 10:14:17;;;;;;;18.35;7.40;;;;;;;;;;5096636;28;19920;-79
2022/08/28 10:17:22;;;;;;;21.15;7.90;;;;;;;;;;5092854;28;20123;-77
2022/08/28 10:20:07;;;;;;;20.17;7.68;;;;;;;;;;4990844;28;20079;-78
2022/08/28 10:22:48;;;;;;;24.03;7.47;;;;;;;;;;4995227;28;20124;-79
2022/08/28 10:25:15;;;;;;;21.73;6.85;;;;;;;;;;5063870;28;20044;-79
2022/08/28 10:27:45;;;;;;;21.75;7.07;;;;;;;;;;5089285;28;20051;-79
2022/08/28 10:30:16;;;;;;;19.45;6.50;;;;;;;;;;5076158;28;20551;-79
2022/08/28 10:32:48;;;;;;;18.15;6.47;;;;;;;;;;5090043;28;20079;-80
2022/08/28 10:35:15;;;;;;;15.38;5.95;;;;;;;;;;5086092;28;20451;-79
2022/08/28 10:37:53;;;;;;;19.25;6.15;;;;;;;;;;5082074;28;20499;-80
2022/08/28 10:40:23;;;;;;;20.40;5.88;;;;;;;;;;5086564;28;20124;-79
2022/08/28 10:42:53;;;;;;;17.30;5.75;;;;;;;;;;5089630;28;20131;-80
2022/08/28 10:45:22;;;;;;;13.98;5.28;;;;;;;;;;5090591;28;20043;-80
2022/08/28 10:47:55;;;;;;;15.18;5.30;;;;;;;;;;5089511;28;20083;-80
2022/08/28 10:50:25;;;;;;;22.73;5.22;;;;;;;;;;5090579;28;20094;-79
2022/08/28 10:52:59;;;;;;;19.02;5.13;;;;;;;;;;5069524;28;20467;-79
2022/08/28 10:55:31;;;;;;;21.58;5.05;;;;;;;;;;5083953;28;20068;-79
2022/08/28 10:58:01;;;;;;;13.43;4.63;;;;;;;;;;5083431;28;20075;-78
2022/08/28 11:00:28;;;;;;;18.55;4.93;;;;;;;;;;5086291;28;20127;-79
2022/08/28 11:02:57;;;;;;;16.60;4.32;;;;;;;;;;5087936;28;20309;-79
2022/08/28 11:05:27;;;;;;;21.25;5.20;;;;;;;;;;5067288;28;20051;-79
2022/08/28 11:07:55;;;;;;;13.35;4.20;;;;;;;;;;5086851;28;20079;-78
2022/08/28 11:10:25;;;;;;;21.77;4.60;;;;;;;;;;5068147;28;20052;-78
2022/08/28 11:12:51;;;;;;;14.13;4.38;;;;;;;;;;5079017;28;20151;-79
2022/08/28 11:15:27;;;;;;;15.70;4.82;;;;;;;;;;5095452;28;20153;-80
2022/08/28 11:18:15;;;;;;;15.95;4.57;;;;;;;;;;5076360;28;20047;-79
2022/08/28 11:20:56;;;;;;;15.73;3.90;;;;;;;;;;5082464;28;20538;-79
2022/08/28 11:23:35;;;;;;;17.42;5.05;;;;;;;;;;5078449;28;20072;-79
2022/08/28 11:26:05;;;;;;;15.38;5.15;;;;;;;;;;5075966;28;20052;-79
2022/08/28 11:28:35;;;;;;;17.42;4.85;;;;;;;;;;5085317;28;20124;-79
2022/08/28 11:31:04;;;;;;;17.95;4.65;;;;;;;;;;5083579;28;20113;-78
2022/08/28 11:33:40;;;;;;;19.05;4.90;;;;;;;;;;5077286;28;20052;-79
2022/08/28 11:36:19;;;;;;;17.38;4.35;;;;;;;;;;5073871;28;20521;-79
2022/08/28 11:38:52;;;;;;;15.13;4.82;;;;;;;;;;5085129;28;20052;-80
2022/08/28 11:41:25;;;;;;;20.25;4.47;;;;;;;;;;5087917;28;20048;-77
2022/08/28 11:44:07;;;;;;;12.88;4.15;;;;;;;;;;5077383;28;20599;-79
2022/08/28 11:46:35;;;;;;;15.55;4.63;;;;;;;;;;5065382;28;20056;-79
2022/08/28 11:49:04;;;;;;;15.90;4.25;;;;;;;;;;5088726;28;20048;-79
2022/08/28 11:51:46;;;;;;;13.82;4.53;;;;;;;;;;5085950;28;20051;-80
2022/08/28 11:54:27;;;;;;;16.52;4.65;;;;;;;;;;5085801;28;20048;-77
2022/08/28 11:57:16;;;;;;;17.38;4.22;;;;;;;;;;5081446;28;20051;-78
2022/08/28 11:59:58;;;;;;;11.57;4.05;;;;;;;;;;5091846;28;20052;-77
2022/08/28 12:02:41;;;;;;;14.38;4.28;;;;;;;;;;5065479;28;20048;-78
2022/08/28 12:05:14;;;;;;;11.55;3.85;;;;;;;;;;5079478;28;20090;-78
2022/08/28 12:07:42;;;;;;;13.15;4.28;;;;;;;;;;5074955;28;20105;-79
2022/08/28 12:10:24;;;;;;;12.00;4.35;;;;;;;;;;5030322;28;1186486;-78
2022/08/28 12:12:52;;;;;;;15.52;4.38;;;;;;;;;;5054241;28;20425;-78
2022/08/28 12:15:28;;;;;;;13.93;4.13;;;;;;;;;;5055193;28;20501;-79
2022/08/28 12:17:59;;;;;;;10.15;3.88;;;;;;;;;;5053781;28;20085;-79
2022/08/28 12:20:28;;;;;;;12.35;3.90;;;;;;;;;;5081194;28;20048;-78
2022/08/28 12:22:57;;;;;;;13.50;4.50;;;;;;;;;;5068757;28;20041;-78
2022/08/28 12:25:24;;;;;;;10.32;3.88;;;;;;;;;;5083639;28;20125;-77
2022/08/28 12:27:51;;;;;;;17.88;4.68;;;;;;;;;;5056365;28;20566;-77
2022/08/28 12:30:29;;;;;;;13.07;3.90;;;;;;;;;;5053726;28;20056;-77
2022/08/28 12:33:07;;;;;;;14.40;4.15;;;;;;;;;;5051824;28;20498;-79
2022/08/28 12:35:34;;;;;;;13.38;4.07;;;;;;;;;;5055558;28;20454;-79
2022/08/28 12:38:02;;;;;;;14.32;4.20;;;;;;;;;;5061803;28;20055;-79
2022/08/28 12:40:41;;;;;;;15.57;4.25;;;;;;;;;;5072090;28;20044;-79
2022/08/28 12:43:09;;;;;;;15.20;4.30;;;;;;;;;;5074453;28;20123;-80
2022/08/28 12:45:47;;;;;;;13.98;4.00;;;;;;;;;;5092470;28;20459;-79
2022/08/28 12:48:21;;;;;;;11.75;4.00;;;;;;;;;;5072303;28;20060;-80
2022/08/28 12:50:55;;;;;;;11.52;4.18;;;;;;;;;;5072838;28;20055;-78
2022/08/28 12:53:36;;;;;;;16.15;4.43;;;;;;;;;;5090657;28;20072;-78
2022/08/28 12:56:02;;;;;;;12.20;4.05;;;;;;;;;;5061640;28;20421;-79
2022/08/28 12:58:33;;;;;;;13.50;4.32;;;;;;;;;;5069856;28;20102;-78
2022/08/28 13:01:01;;;;;;;12.30;4.20;;;;;;;;;;5052644;28;20057;-78
2022/08/28 13:03:28;;;;;;;14.38;4.30;;;;;;;;;;5052181;28;20109;-78
2022/08/28 13:06:06;;;;;;;17.40;4.32;;;;;;;;;;5070586;28;20567;-78
2022/08/28 13:08:33;;;;;;;13.50;4.28;;;;;;;;;;5070083;28;20118;-78
2022/08/28 13:11:00;;;;;;;12.40;4.35;;;;;;;;;;5053527;28;20060;-78
2022/08/28 13:13:38;;;;;;;16.77;4.75;;;;;;;;;;5071228;28;20106;-78
2022/08/28 13:16:06;;;;;;;13.82;4.18;;;;;;;;;;5070430;28;20060;-78
2022/08/28 13:18:39;;;;;;;15.35;4.47;;;;;;;;;;5070390;28;20454;-78
2022/08/28 13:21:18;;;;;;;11.27;4.05;;;;;;;;;;5071363;28;20053;-78
2022/08/28 13:23:59;;;;;;;11.88;3.83;;;;;;;;;;5071073;28;20514;-78
2022/08/28 13:26:29;;;;;;;12.05;3.85;;;;;;;;;;5072860;28;20063;-77
2022/08/28 13:28:58;;;;;;;17.77;4.20;;;;;;;;;;5072373;28;20474;-78
2022/08/28 13:31:26;;;;;;;11.25;4.03;;;;;;;;;;5069973;28;20056;-78
2022/08/28 13:34:02;;;;;;;13.90;3.70;;;;;;;;;;5068564;28;20052;-77
2022/08/28 13:36:36;;;;;;;13.30;3.85;;;;;;;;;;5069505;28;20048;-77
2022/08/28 13:39:02;;;;;;;12.55;4.20;;;;;;;;;;5052632;28;20052;-79
2022/08/28 13:41:29;;;;;;;9.20;3.65;;;;;;;;;;5061440;28;20045;-80
2022/08/28 13:43:56;;;;;;;17.02;3.85;;;;;;;;;;5067487;28;20418;-78
2022/08/28 13:46:22;;;;;;;10.90;3.70;;;;;;;;;;5080576;28;20114;-79
2022/08/28 13:48:49;;;;;;;13.25;3.95;;;;;;;;;;5052546;28;20067;-78
2022/08/28 13:51:16;;;;;;;13.82;3.63;;;;;;;;;;5073590;28;20063;-77
2022/08/28 13:53:47;;;;;;;9.48;3.80;;;;;;;;;;5055760;28;20527;-79
2022/08/28 13:56:14;;;;;;;9.20;3.90;;;;;;;;;;5081826;28;20061;-79
2022/08/28 13:58:41;;;;;;;10.27;3.88;;;;;;;;;;5054047;28;20406;-79
2022/08/28 14:01:08;;;;;;;14.25;4.10;;;;;;;;;;5071982;28;20094;-78
2022/08/28 14:03:36;;;;;;;13.35;3.92;;;;;;;;;;5071121;28;20051;-78
2022/08/28 14:06:04;;;;;;;12.55;3.70;;;;;;;;;;5072512;28;20055;-78
2022/08/28 14:08:31;;;;;;;10.15;3.80;;;;;;;;;;5054728;28;20106;-78
2022/08/28 14:10:58;;;;;;;10.02;3.90;;;;;;;;;;5057355;28;20105;-79
2022/08/28 14:13:26;;;;;;;9.98;3.50;;;;;;;;;;5091351;28;20101;-78
2022/08/28 14:15:54;;;;;;;9.82;3.42;;;;;;;;;;5089844;28;20079;-79
2022/08/28 14:18:21;;;;;;;10.70;4.00;;;;;;;;;;5089954;28;20056;-79
2022/08/28 14:20:47;;;;;;;9.45;3.58;;;;;;;;;;5090012;28;20618;-79
2022/08/28 14:23:14;;;;;;;12.77;3.75;;;;;;;;;;5072187;28;20064;-78
2022/08/28 14:25:42;;;;;;;10.00;3.80;;;;;;;;;;5072027;28;20071;-77
2022/08/28 14:28:09;;;;;;;6.80;3.30;;;;;;;;;;5090249;28;20054;-80
2022/08/28 14:30:42;;;;;;;9.80;3.42;;;;;;;;;;5089208;28;20055;-79
2022/08/28 14:33:09;;;;;;;10.07;3.50;;;;;;;;;;5086760;28;20062;-78
2022/08/28 14:35:39;;;;;;;13.88;3.97;;;;;;;;;;5087544;28;20051;-78
2022/08/28 14:38:06;;;;;;;12.68;3.75;;;;;;;;;;5087002;28;20048;-79
2022/08/28 14:40:37;;;;;;;11.18;3.80;;;;;;;;;;5087018;28;20093;-78
2022/08/28 14:43:04;;;;;;;12.52;3.30;;;;;;;;;;5088321;28;20461;-78
2022/08/28 14:45:31;;;;;;;9.52;3.35;;;;;;;;;;5089539;28;20089;-77